Time;durP1;ratioP1;P1;durP2;ratioP2;P2;SDS_P1;SDS_P2;PMS_P1;PMS_P2;Temp;Humidity;BMP_temperature;BMP_pressure;BME280_temperature;BME280_humidity;BME280_pressure;Samples;Min_cycle;Max_cycle;Signal;HPM_P1;HPM_P2
2023/09/08 00:00:50;;;;;;;17.63;8.73;;;17.20;99.90;;;;;;4987070;28;20543;-61
2023/09/08 00:03:15;;;;;;;11.85;8.15;;;17.20;99.90;;;;;;4988927;28;20432;-60
2023/09/08 00:05:41;;;;;;;11.27;7.97;;;17.20;99.90;;;;;;4988271;28;20030;-60
2023/09/08 00:08:07;;;;;;;13.80;7.95;;;17.20;99.90;;;;;;4989820;28;20027;-62
2023/09/08 00:10:32;;;;;;;11.57;8.50;;;17.20;99.90;;;;;;4991603;28;20535;-61
2023/09/08 00:12:58;;;;;;;17.38;8.55;;;17.20;99.90;;;;;;4990576;28;20038;-60
2023/09/08 00:15:23;;;;;;;10.73;8.43;;;17.20;99.90;;;;;;4987503;28;20034;-61
2023/09/08 00:17:49;;;;;;;12.88;8.18;;;17.20;99.90;;;;;;4986801;28;20023;-62
2023/09/08 00:20:15;;;;;;;13.13;8.90;;;17.20;99.90;;;;;;4987570;28;20033;-62
2023/09/08 00:22:40;;;;;;;11.52;8.70;;;17.10;99.90;;;;;;4988707;28;20065;-61
2023/09/08 00:25:06;;;;;;;12.52;8.48;;;17.10;99.90;;;;;;4985360;28;20034;-61
2023/09/08 00:27:32;;;;;;;19.92;8.93;;;17.10;99.90;;;;;;4988112;28;20038;-61
2023/09/08 00:29:58;;;;;;;13.95;9.20;;;17.00;99.90;;;;;;4987489;28;20034;-60
2023/09/08 00:32:23;;;;;;;14.10;8.80;;;17.00;99.90;;;;;;4988732;28;20034;-60
2023/09/08 00:34:49;;;;;;;15.57;8.48;;;17.00;99.90;;;;;;4988444;28;20037;-60
2023/09/08 00:37:15;;;;;;;15.50;8.68;;;17.00;99.90;;;;;;4985944;28;20034;-60
2023/09/08 00:39:40;;;;;;;12.70;9.30;;;17.00;99.90;;;;;;4985043;28;20057;-58
2023/09/08 00:42:07;;;;;;;12.77;8.85;;;16.90;99.90;;;;;;4989443;28;20034;-62
2023/09/08 00:44:33;;;;;;;13.80;8.93;;;16.90;99.90;;;;;;4988096;28;20030;-62
2023/09/08 00:46:59;;;;;;;14.68;8.43;;;16.90;99.90;;;;;;4985821;28;20102;-62
2023/09/08 00:49:25;;;;;;;14.43;8.60;;;16.90;99.90;;;;;;4985307;28;20109;-61
2023/09/08 00:51:51;;;;;;;13.95;9.75;;;16.90;99.90;;;;;;4985981;28;20026;-60
2023/09/08 00:54:17;;;;;;;14.25;9.73;;;16.80;99.90;;;;;;4983804;28;20026;-61
2023/09/08 00:56:45;;;;;;;15.30;10.23;;;16.90;99.90;;;;;;4988529;28;20037;-59
2023/09/08 00:59:11;;;;;;;12.73;8.45;;;16.80;99.90;;;;;;4990602;28;20460;-60
2023/09/08 01:01:37;;;;;;;14.50;8.35;;;16.70;99.90;;;;;;4991984;28;20057;-61
2023/09/08 01:04:02;;;;;;;13.18;9.13;;;16.70;99.90;;;;;;4991371;28;20030;-61
2023/09/08 01:06:28;;;;;;;12.90;9.05;;;16.70;99.90;;;;;;4990664;28;20045;-60
2023/09/08 01:08:55;;;;;;;17.45;8.32;;;16.70;99.90;;;;;;4991390;28;20083;-61
2023/09/08 01:11:22;;;;;;;14.10;9.93;;;16.70;99.90;;;;;;4993086;28;20030;-58
2023/09/08 01:13:47;;;;;;;16.25;9.65;;;16.70;99.90;;;;;;4991702;28;20026;-59
2023/09/08 01:16:13;;;;;;;12.25;8.23;;;16.70;99.90;;;;;;4987876;28;20084;-61
2023/09/08 01:18:38;;;;;;;14.43;8.50;;;16.70;99.90;;;;;;4992488;28;20532;-62
2023/09/08 01:21:22;;;;;;;14.70;9.15;;;16.70;99.90;;;;;;4993194;28;20022;-62
2023/09/08 01:24:23;;;;;;;15.68;9.55;;;16.60;99.90;;;;;;4992243;28;20105;-60
2023/09/08 01:26:48;;;;;;;13.20;8.57;;;16.70;99.90;;;;;;4990036;28;20040;-61
2023/09/08 01:29:16;;;;;;;17.40;9.23;;;16.70;99.90;;;;;;4991043;28;20034;-59
2023/09/08 01:31:42;;;;;;;13.73;8.40;;;16.60;99.90;;;;;;4989904;28;20026;-62
2023/09/08 01:34:08;;;;;;;12.00;8.70;;;16.60;99.90;;;;;;4990309;28;20138;-60
2023/09/08 01:36:35;;;;;;;16.20;8.60;;;16.70;99.90;;;;;;4989317;28;20042;-61
2023/09/08 01:39:01;;;;;;;16.65;8.98;;;16.60;99.90;;;;;;4990626;28;20032;-60
2023/09/08 01:41:27;;;;;;;22.17;9.30;;;16.60;99.90;;;;;;4992574;28;20053;-61
2023/09/08 01:43:52;;;;;;;15.13;7.97;;;16.60;99.90;;;;;;4989393;28;20065;-59
2023/09/08 01:46:18;;;;;;;15.43;9.52;;;16.60;99.90;;;;;;4989193;28;20026;-59
2023/09/08 01:48:43;;;;;;;14.77;8.80;;;16.60;99.90;;;;;;4991589;28;20081;-61
2023/09/08 01:51:09;;;;;;;16.80;9.32;;;16.60;99.90;;;;;;4988529;28;20568;-58
2023/09/08 01:53:34;;;;;;;23.60;9.02;;;16.50;99.90;;;;;;4989143;28;21284;-61
2023/09/08 01:56:01;;;;;;;23.67;9.73;;;16.50;99.90;;;;;;4992235;28;20034;-62
2023/09/08 01:58:26;;;;;;;17.50;8.98;;;16.50;99.90;;;;;;4984995;28;20022;-61
2023/09/08 02:00:52;;;;;;;12.98;8.38;;;16.40;99.90;;;;;;4988888;28;20451;-60
2023/09/08 02:03:17;;;;;;;15.07;9.07;;;16.40;99.90;;;;;;4991131;28;20092;-60
2023/09/08 02:05:44;;;;;;;11.95;8.65;;;16.40;99.90;;;;;;4989931;28;20484;-62
2023/09/08 02:08:10;;;;;;;11.95;8.68;;;16.40;99.90;;;;;;4989641;28;20030;-61
2023/09/08 02:10:35;;;;;;;14.60;8.40;;;16.40;99.90;;;;;;4988666;28;20043;-61
2023/09/08 02:13:01;;;;;;;11.82;7.68;;;16.40;99.90;;;;;;4991248;28;20058;-62
2023/09/08 02:15:26;;;;;;;13.90;8.27;;;16.40;99.90;;;;;;4988806;28;20408;-61
2023/09/08 02:17:55;;;;;;;14.57;9.15;;;16.40;99.90;;;;;;4990962;28;20512;-61
2023/09/08 02:20:21;;;;;;;12.50;8.30;;;16.50;99.90;;;;;;4989733;28;20042;-61
2023/09/08 02:22:50;;;;;;;14.70;8.40;;;16.40;99.90;;;;;;4991106;28;20409;-60
2023/09/08 02:25:16;;;;;;;15.00;8.82;;;16.40;99.90;;;;;;4985715;28;20030;-61
2023/09/08 02:27:42;;;;;;;15.40;8.68;;;16.40;99.90;;;;;;4990988;28;20512;-61
2023/09/08 02:30:08;;;;;;;15.05;7.70;;;16.40;99.90;;;;;;4990282;28;20046;-61
2023/09/08 02:32:33;;;;;;;14.68;8.25;;;16.40;99.90;;;;;;4990829;28;20026;-60
2023/09/08 02:34:59;;;;;;;20.90;8.43;;;16.40;99.90;;;;;;4989500;28;20488;-60
2023/09/08 02:37:24;;;;;;;12.48;8.50;;;16.40;99.90;;;;;;4990312;28;20100;-61
2023/09/08 02:39:50;;;;;;;18.95;8.43;;;16.50;99.90;;;;;;4989300;28;20531;-62
2023/09/08 02:42:15;;;;;;;15.32;8.07;;;16.50;99.90;;;;;;4991642;28;20030;-61
2023/09/08 02:44:41;;;;;;;12.75;7.93;;;16.40;99.90;;;;;;4991568;28;20037;-59
2023/09/08 02:47:07;;;;;;;12.13;8.13;;;16.40;99.90;;;;;;4985646;28;20034;-62
2023/09/08 02:49:32;;;;;;;10.95;7.47;;;16.50;99.90;;;;;;4992999;28;20041;-61
2023/09/08 02:51:58;;;;;;;12.32;8.13;;;16.50;99.90;;;;;;4988772;28;20069;-62
2023/09/08 02:54:23;;;;;;;11.13;8.07;;;16.50;99.90;;;;;;4992381;28;20034;-60
2023/09/08 02:56:49;;;;;;;12.25;8.02;;;16.50;99.90;;;;;;4988629;28;20068;-62
2023/09/08 02:59:14;;;;;;;12.18;8.00;;;16.40;99.90;;;;;;4990446;28;20026;-63
2023/09/08 03:01:40;;;;;;;13.68;7.38;;;16.40;99.90;;;;;;4988781;28;20438;-62
2023/09/08 03:04:05;;;;;;;16.35;8.68;;;16.40;99.90;;;;;;4985188;28;20595;-59
2023/09/08 03:06:31;;;;;;;13.57;8.48;;;16.40;99.90;;;;;;4987624;28;20030;-60
2023/09/08 03:08:58;;;;;;;14.90;8.10;;;16.30;99.90;;;;;;4988988;28;20098;-59
2023/09/08 03:11:24;;;;;;;15.35;8.15;;;16.30;99.90;;;;;;4990471;28;20511;-61
2023/09/08 03:13:50;;;;;;;15.95;8.73;;;16.30;99.90;;;;;;4989059;28;20109;-61
2023/09/08 03:16:15;;;;;;;13.23;7.90;;;16.30;99.90;;;;;;4987299;28;20026;-60
2023/09/08 03:18:41;;;;;;;13.93;8.75;;;16.20;99.90;;;;;;4987338;28;20035;-62
2023/09/08 03:21:10;;;;;;;15.15;8.45;;;16.20;99.90;;;;;;4990745;28;20064;-61
2023/09/08 03:23:40;;;;;;;13.07;8.98;;;16.10;99.90;;;;;;4988986;28;20094;-62
2023/09/08 03:26:07;;;;;;;11.13;8.40;;;16.10;99.90;;;;;;4985825;28;20037;-60
2023/09/08 03:28:34;;;;;;;16.27;8.23;;;16.00;99.90;;;;;;4987566;28;20038;-61
2023/09/08 03:31:00;;;;;;;10.48;7.70;;;16.00;99.90;;;;;;4984080;28;20026;-61
2023/09/08 03:33:26;;;;;;;17.00;9.27;;;16.00;99.90;;;;;;4983374;28;20042;-62
2023/09/08 03:35:51;;;;;;;13.98;7.40;;;16.00;99.90;;;;;;4989252;28;20038;-62
2023/09/08 03:38:17;;;;;;;13.07;8.52;;;16.00;99.90;;;;;;4986474;28;20065;-60
2023/09/08 03:40:42;;;;;;;17.80;7.85;;;16.00;99.90;;;;;;4988390;28;20392;-61
2023/09/08 03:43:08;;;;;;;16.25;8.43;;;16.00;99.90;;;;;;4986763;28;20136;-56
2023/09/08 03:45:33;;;;;;;14.05;9.05;;;15.90;99.90;;;;;;4986957;28;20485;-61
2023/09/08 03:47:59;;;;;;;13.27;9.00;;;15.90;99.90;;;;;;4989650;28;20436;-60
2023/09/08 03:50:24;;;;;;;14.77;8.38;;;15.90;99.90;;;;;;4988214;28;20472;-59
2023/09/08 03:52:50;;;;;;;12.57;8.93;;;15.90;99.90;;;;;;4987677;28;20485;-62
2023/09/08 03:55:16;;;;;;;17.65;9.55;;;15.80;99.90;;;;;;4984536;28;20517;-60
2023/09/08 03:57:42;;;;;;;12.63;9.02;;;15.80;99.90;;;;;;4986779;28;20034;-60
2023/09/08 04:00:10;;;;;;;14.52;8.93;;;15.70;99.90;;;;;;4985910;28;20038;-58
2023/09/08 04:02:36;;;;;;;18.10;9.95;;;15.70;99.90;;;;;;4988011;28;20040;-58
2023/09/08 04:05:02;;;;;;;12.50;9.15;;;15.70;99.90;;;;;;4987514;28;20034;-60
2023/09/08 04:07:27;;;;;;;13.90;9.27;;;15.70;99.90;;;;;;4982935;28;20039;-60
2023/09/08 04:09:53;;;;;;;12.23;9.20;;;15.60;99.90;;;;;;4987403;28;20062;-60
2023/09/08 04:12:18;;;;;;;12.65;8.68;;;15.60;99.90;;;;;;4987397;28;20057;-59
2023/09/08 04:14:44;;;;;;;10.68;8.18;;;15.60;99.90;;;;;;4985097;28;20030;-60
2023/09/08 04:17:09;;;;;;;13.60;8.43;;;15.60;99.90;;;;;;4989314;28;20018;-60
2023/09/08 04:19:35;;;;;;;15.57;8.82;;;15.60;99.90;;;;;;4986278;28;20022;-60
2023/09/08 04:22:00;;;;;;;11.43;8.05;;;15.60;99.90;;;;;;4985568;28;20031;-59
2023/09/08 04:24:26;;;;;;;14.27;9.02;;;15.60;99.90;;;;;;4981234;28;20113;-61
2023/09/08 04:26:52;;;;;;;12.35;8.40;;;15.60;99.90;;;;;;4987274;28;20038;-60
2023/09/08 04:29:17;;;;;;;15.48;8.65;;;15.60;99.90;;;;;;4983544;28;20095;-57
2023/09/08 04:31:43;;;;;;;16.58;9.50;;;15.60;99.90;;;;;;4984197;28;20027;-62
2023/09/08 04:34:08;;;;;;;16.75;9.20;;;15.50;99.90;;;;;;4988030;28;20026;-59
2023/09/08 04:36:34;;;;;;;13.43;8.63;;;15.60;99.90;;;;;;4987156;28;20672;-62
2023/09/08 04:38:59;;;;;;;20.13;8.77;;;15.50;99.90;;;;;;4984983;28;20034;-61
2023/09/08 04:41:25;;;;;;;15.35;9.18;;;15.50;99.90;;;;;;4984687;28;20035;-62
2023/09/08 04:43:50;;;;;;;13.90;9.07;;;15.50;99.90;;;;;;4983695;28;20034;-58
2023/09/08 04:46:16;;;;;;;11.68;8.48;;;15.50;99.90;;;;;;4982658;28;20404;-62
2023/09/08 04:48:42;;;;;;;14.50;8.63;;;15.50;99.90;;;;;;4984897;28;20511;-61
2023/09/08 04:51:07;;;;;;;18.63;9.82;;;15.50;99.90;;;;;;4986798;28;20041;-60
2023/09/08 04:53:33;;;;;;;15.15;9.63;;;15.50;99.90;;;;;;4982958;28;20042;-58
2023/09/08 04:55:59;;;;;;;18.60;9.25;;;15.50;99.90;;;;;;4986034;28;20592;-60
2023/09/08 04:58:25;;;;;;;12.55;8.10;;;15.50;99.90;;;;;;4985453;28;20054;-62
2023/09/08 05:00:51;;;;;;;18.35;11.27;;;15.50;99.90;;;;;;4985740;28;20349;-60
2023/09/08 05:03:16;;;;;;;14.35;9.10;;;15.50;99.90;;;;;;4982461;28;20029;-59
2023/09/08 05:05:42;;;;;;;17.15;9.50;;;15.50;99.90;;;;;;4980184;28;20041;-59
2023/09/08 05:08:07;;;;;;;13.73;8.52;;;15.50;99.90;;;;;;4984995;28;20975;-57
2023/09/08 05:10:33;;;;;;;15.13;9.20;;;15.60;99.90;;;;;;4986713;28;20112;-60
2023/09/08 05:12:58;;;;;;;14.25;8.95;;;15.60;99.90;;;;;;4990515;28;20038;-57
2023/09/08 05:15:25;;;;;;;15.15;8.43;;;15.60;99.90;;;;;;4985791;28;20042;-60
2023/09/08 05:17:50;;;;;;;17.17;9.43;;;15.60;99.90;;;;;;4979592;28;20019;-60
2023/09/08 05:20:16;;;;;;;13.25;8.13;;;15.70;99.90;;;;;;4986079;28;20026;-60
2023/09/08 05:22:42;;;;;;;12.02;8.18;;;15.70;99.90;;;;;;4982902;28;21976;-60
2023/09/08 05:25:08;;;;;;;11.02;8.45;;;15.70;99.90;;;;;;4982883;28;20030;-58
2023/09/08 05:27:34;;;;;;;14.23;8.80;;;15.70;99.90;;;;;;4983562;28;20523;-60
2023/09/08 05:30:00;;;;;;;12.38;8.63;;;15.80;99.90;;;;;;4986690;28;20026;-62
2023/09/08 05:32:25;;;;;;;11.40;7.70;;;15.80;99.90;;;;;;4983269;28;20508;-61
2023/09/08 05:34:51;;;;;;;13.77;8.85;;;15.80;99.90;;;;;;4982164;28;20038;-60
2023/09/08 05:37:16;;;;;;;13.65;8.18;;;15.80;99.90;;;;;;4982856;28;20058;-59
2023/09/08 05:39:42;;;;;;;14.88;8.60;;;15.80;99.90;;;;;;4982097;28;20050;-60
2023/09/08 05:42:08;;;;;;;15.90;8.40;;;15.90;99.90;;;;;;4985715;28;20515;-59
2023/09/08 05:44:33;;;;;;;11.38;7.60;;;15.90;99.90;;;;;;4989205;28;20037;-59
2023/09/08 05:46:58;;;;;;;13.70;8.60;;;15.90;99.90;;;;;;4989440;28;20034;-59
2023/09/08 05:49:24;;;;;;;14.98;8.45;;;16.00;99.90;;;;;;4989202;28;20034;-60
2023/09/08 05:51:50;;;;;;;13.50;8.25;;;16.00;99.90;;;;;;4993110;28;20018;-59
2023/09/08 05:54:15;;;;;;;15.98;8.32;;;16.10;99.90;;;;;;4986375;28;20057;-60
2023/09/08 05:56:41;;;;;;;12.77;8.38;;;16.10;99.90;;;;;;4991790;28;20025;-60
2023/09/08 05:59:06;;;;;;;14.10;7.53;;;16.20;99.90;;;;;;4989783;28;20019;-60
2023/09/08 06:01:32;;;;;;;13.90;7.47;;;16.20;99.90;;;;;;4990028;28;20024;-59
2023/09/08 06:03:58;;;;;;;12.55;7.43;;;16.20;99.90;;;;;;4989708;28;20023;-57
2023/09/08 06:06:25;;;;;;;13.75;7.13;;;16.30;99.90;;;;;;4989721;28;20143;-59
2023/09/08 06:08:50;;;;;;;12.80;7.70;;;16.30;99.90;;;;;;4987457;28;20035;-61
2023/09/08 06:11:16;;;;;;;11.60;7.47;;;16.40;99.90;;;;;;4992085;28;20026;-60
2023/09/08 06:13:42;;;;;;;17.38;8.27;;;16.40;99.90;;;;;;4989454;28;20027;-60
2023/09/08 06:16:08;;;;;;;9.93;7.28;;;16.50;99.90;;;;;;4985186;28;20046;-59
2023/09/08 06:18:39;;;;;;;14.18;7.53;;;16.50;99.90;;;;;;4986538;28;20027;-56
2023/09/08 06:21:06;;;;;;;15.90;8.15;;;16.60;99.90;;;;;;4991187;28;20030;-58
2023/09/08 06:23:31;;;;;;;19.13;7.22;;;16.60;99.90;;;;;;4985774;28;20027;-59
2023/09/08 06:26:00;;;;;;;11.60;7.70;;;16.70;99.90;;;;;;4989620;28;20029;-55
2023/09/08 06:28:27;;;;;;;12.43;6.85;;;16.80;99.90;;;;;;4989177;28;20494;-59
2023/09/08 06:30:52;;;;;;;13.70;6.78;;;16.80;99.90;;;;;;4990817;28;20045;-57
2023/09/08 06:33:18;;;;;;;13.07;7.13;;;16.90;99.90;;;;;;4987516;28;20034;-60
2023/09/08 06:35:44;;;;;;;11.98;7.47;;;17.00;99.90;;;;;;4991495;28;20065;-60
2023/09/08 06:38:09;;;;;;;14.63;7.13;;;17.10;99.90;;;;;;4989020;28;20109;-59
2023/09/08 06:40:35;;;;;;;12.15;7.10;;;17.10;99.90;;;;;;4991056;28;20473;-59
2023/09/08 06:43:00;;;;;;;16.98;8.02;;;17.20;99.90;;;;;;4989966;28;20026;-61
2023/09/08 06:45:26;;;;;;;11.00;7.03;;;17.30;99.90;;;;;;4982055;28;20049;-58
2023/09/08 06:47:54;;;;;;;11.45;7.15;;;17.30;99.90;;;;;;4987886;28;20037;-55
2023/09/08 06:50:21;;;;;;;17.80;7.40;;;17.40;99.90;;;;;;4985168;28;20165;-59
2023/09/08 06:52:46;;;;;;;10.85;6.45;;;17.50;99.90;;;;;;4982888;28;20061;-59
2023/09/08 06:55:13;;;;;;;13.02;7.45;;;17.60;99.90;;;;;;4986985;28;20404;-62
2023/09/08 06:57:38;;;;;;;13.93;7.30;;;17.70;99.90;;;;;;4990014;28;20477;-58
2023/09/08 07:00:06;;;;;;;15.88;7.18;;;17.80;99.90;;;;;;4984624;28;20030;-60
2023/09/08 07:02:32;;;;;;;10.80;6.00;;;17.80;99.90;;;;;;4989949;28;20026;-57
2023/09/08 07:04:58;;;;;;;11.07;6.38;;;17.90;99.90;;;;;;4988144;28;20052;-61
2023/09/08 07:07:23;;;;;;;10.68;7.32;;;18.00;99.90;;;;;;5002219;28;20560;-62
2023/09/08 07:09:49;;;;;;;10.05;7.60;;;18.10;99.90;;;;;;4987202;28;20062;-61
2023/09/08 07:12:14;;;;;;;12.77;6.13;;;18.10;99.90;;;;;;4990131;28;20037;-57
2023/09/08 07:14:40;;;;;;;9.55;6.05;;;18.20;99.90;;;;;;4984863;28;20543;-58
2023/09/08 07:17:05;;;;;;;12.45;7.40;;;18.30;99.90;;;;;;4985912;28;20109;-60
2023/09/08 07:19:31;;;;;;;10.75;6.28;;;18.40;99.90;;;;;;4986476;28;20133;-59
2023/09/08 07:21:56;;;;;;;8.75;5.88;;;18.40;99.90;;;;;;4990866;28;20468;-59
2023/09/08 07:24:22;;;;;;;13.25;6.70;;;18.60;99.90;;;;;;4986345;28;20076;-60
2023/09/08 07:26:48;;;;;;;19.55;6.70;;;18.60;99.90;;;;;;4990477;28;20025;-60
2023/09/08 07:29:13;;;;;;;10.50;6.60;;;18.70;99.90;;;;;;4989077;28;20080;-54
2023/09/08 07:31:39;;;;;;;13.82;6.55;;;18.80;99.90;;;;;;4985062;28;20023;-58
2023/09/08 07:34:05;;;;;;;14.15;6.20;;;18.90;99.90;;;;;;4989026;28;20511;-58
2023/09/08 07:36:30;;;;;;;12.57;6.60;;;19.00;99.90;;;;;;4987154;28;20062;-59
2023/09/08 07:38:56;;;;;;;8.95;6.35;;;19.00;99.90;;;;;;4989866;28;20018;-62
2023/09/08 07:41:21;;;;;;;13.50;5.78;;;19.20;99.90;;;;;;4988640;28;20022;-59
2023/09/08 07:43:47;;;;;;;10.05;6.22;;;19.20;99.90;;;;;;4988882;28;20034;-62
2023/09/08 07:46:12;;;;;;;8.77;6.60;;;19.30;99.90;;;;;;4988341;28;20026;-62
2023/09/08 07:48:38;;;;;;;8.82;5.13;;;19.50;99.90;;;;;;4988119;28;20035;-57
2023/09/08 07:51:03;;;;;;;23.60;7.72;;;19.60;99.90;;;;;;4987632;28;20103;-60
2023/09/08 07:53:29;;;;;;;11.75;6.03;;;19.60;99.90;;;;;;4987534;28;20041;-59
2023/09/08 07:55:54;;;;;;;15.50;6.90;;;19.70;99.90;;;;;;4990177;28;20037;-59
2023/09/08 07:58:21;;;;;;;11.68;5.95;;;19.90;99.90;;;;;;4985873;28;20113;-58
2023/09/08 08:00:46;;;;;;;9.65;6.13;;;19.90;99.90;;;;;;4984002;28;20026;-60
2023/09/08 08:03:12;;;;;;;16.30;6.13;;;20.00;99.90;;;;;;4987047;28;20157;-62
2023/09/08 08:05:37;;;;;;;14.15;6.13;;;20.10;99.90;;;;;;4985843;28;20037;-61
2023/09/08 08:08:03;;;;;;;8.55;5.80;;;20.20;99.90;;;;;;4989254;28;20447;-59
2023/09/08 08:10:29;;;;;;;15.55;6.60;;;20.30;99.90;;;;;;4988197;28;20034;-60
2023/09/08 08:12:54;;;;;;;12.02;5.53;;;20.40;99.90;;;;;;4986212;28;20555;-60
2023/09/08 08:15:21;;;;;;;9.82;5.45;;;20.50;99.90;;;;;;4983122;28;20113;-60
2023/09/08 08:17:47;;;;;;;11.52;5.50;;;20.70;99.90;;;;;;4987166;28;20232;-57
2023/09/08 08:20:17;;;;;;;14.98;5.57;;;20.80;99.90;;;;;;4989089;28;20121;-58
2023/09/08 08:22:45;;;;;;;9.00;5.22;;;20.90;99.90;;;;;;4986543;28;20023;-60
2023/09/08 08:25:11;;;;;;;8.52;5.63;;;21.00;99.90;;;;;;4988925;28;20113;-60
2023/09/08 08:27:36;;;;;;;11.77;5.88;;;21.20;99.90;;;;;;4989735;28;20042;-59
2023/09/08 08:30:03;;;;;;;13.95;5.47;;;21.30;99.90;;;;;;4984015;28;20034;-59
2023/09/08 08:32:29;;;;;;;9.05;5.90;;;21.40;99.90;;;;;;4987083;28;20030;-59
2023/09/08 08:34:55;;;;;;;8.15;5.78;;;21.40;99.90;;;;;;4984970;28;20096;-61
2023/09/08 08:37:20;;;;;;;11.05;5.55;;;21.60;99.90;;;;;;4986671;28;20030;-60
2023/09/08 08:39:46;;;;;;;8.60;5.45;;;21.70;99.90;;;;;;4986153;28;20496;-59
2023/09/08 08:42:11;;;;;;;13.05;6.22;;;21.80;99.90;;;;;;4988329;28;20404;-59
2023/09/08 08:44:38;;;;;;;11.35;5.93;;;21.90;99.90;;;;;;4988362;28;20382;-59
2023/09/08 08:47:07;;;;;;;13.95;5.97;;;21.90;99.90;;;;;;4986817;28;20397;-61
2023/09/08 08:49:33;;;;;;;12.00;5.20;;;22.10;99.90;;;;;;4987886;28;20072;-60
2023/09/08 08:52:00;;;;;;;7.13;5.03;;;22.20;99.90;;;;;;4981540;28;20535;-62
2023/09/08 08:54:26;;;;;;;6.47;5.03;;;22.40;99.90;;;;;;4984239;28;20396;-61
2023/09/08 08:56:52;;;;;;;10.02;5.05;;;22.50;99.90;;;;;;4985331;28;20030;-61
2023/09/08 08:59:18;;;;;;;8.35;4.72;;;22.60;99.90;;;;;;4986982;28;20040;-60
2023/09/08 09:01:44;;;;;;;8.05;5.70;;;22.70;99.90;;;;;;4987064;28;20030;-61
2023/09/08 09:04:10;;;;;;;10.70;5.22;;;22.90;99.90;;;;;;4981761;28;20109;-61
2023/09/08 09:06:36;;;;;;;15.35;5.47;;;23.00;99.90;;;;;;4979650;28;20031;-60
2023/09/08 09:09:04;;;;;;;8.88;5.00;;;23.10;99.90;;;;;;4988399;28;20030;-61
2023/09/08 09:11:31;;;;;;;6.95;4.82;;;23.30;99.90;;;;;;4987750;28;20034;-61
2023/09/08 09:13:57;;;;;;;12.52;4.72;;;23.40;99.90;;;;;;4985422;28;20033;-60
2023/09/08 09:16:22;;;;;;;14.73;5.35;;;23.50;99.90;;;;;;4984126;28;20027;-60
2023/09/08 09:18:55;;;;;;;10.63;5.30;;;23.70;99.90;;;;;;4982139;28;20547;-61
2023/09/08 09:21:21;;;;;;;17.15;5.50;;;23.80;99.90;;;;;;4985638;28;20113;-60
2023/09/08 09:23:47;;;;;;;9.32;5.18;;;24.00;99.90;;;;;;4989417;28;20026;-62
2023/09/08 09:26:23;;;;;;;9.75;5.35;;;24.20;99.90;;;;;;4990044;28;20058;-59
2023/09/08 09:28:51;;;;;;;14.95;5.85;;;24.40;99.90;;;;;;4987095;28;20043;-62
2023/09/08 09:31:24;;;;;;;11.18;4.70;;;24.50;99.90;;;;;;4984192;28;20423;-60
2023/09/08 09:34:04;;;;;;;12.57;4.78;;;24.70;99.90;;;;;;4986372;28;20476;-60
2023/09/08 09:36:29;;;;;;;8.98;4.97;;;24.90;99.90;;;;;;4983780;28;20065;-61
2023/09/08 09:38:59;;;;;;;7.85;5.20;;;25.00;99.90;;;;;;4985029;28;20515;-59
2023/09/08 09:41:25;;;;;;;9.82;4.78;;;25.20;99.90;;;;;;4983198;28;20037;-60
2023/09/08 09:43:51;;;;;;;15.38;5.28;;;25.40;99.90;;;;;;4987018;28;20054;-61
2023/09/08 09:46:16;;;;;;;12.20;4.97;;;25.50;99.90;;;;;;4989261;28;20077;-61
2023/09/08 09:48:42;;;;;;;14.75;5.35;;;25.70;99.90;;;;;;4990182;28;20077;-61
2023/09/08 09:51:19;;;;;;;7.15;5.20;;;25.90;99.90;;;;;;4987865;28;20082;-60
2023/09/08 09:53:45;;;;;;;12.93;4.30;;;26.10;99.90;;;;;;4991401;28;20018;-59
2023/09/08 09:56:11;;;;;;;11.30;4.93;;;26.30;99.90;;;;;;4990989;28;20387;-59
2023/09/08 09:58:38;;;;;;;17.17;6.03;;;26.60;99.90;;;;;;4992654;28;20035;-61
2023/09/08 10:01:05;;;;;;;10.43;5.18;;;26.80;99.90;;;;;;4988020;28;20018;-62
2023/09/08 10:03:32;;;;;;;10.48;5.13;;;27.00;99.90;;;;;;4988825;28;20480;-61
2023/09/08 10:05:58;;;;;;;11.82;5.28;;;27.20;99.90;;;;;;4992707;28;20467;-60
2023/09/08 10:08:24;;;;;;;9.95;4.70;;;27.40;99.90;;;;;;4990856;28;20133;-61
2023/09/08 10:10:50;;;;;;;10.27;4.63;;;27.60;99.90;;;;;;4993185;28;20034;-60
2023/09/08 10:13:26;;;;;;;15.18;5.32;;;27.80;99.90;;;;;;4990856;28;20030;-61
2023/09/08 10:15:56;;;;;;;10.75;4.72;;;28.00;99.90;;;;;;4990453;28;20481;-58
2023/09/08 10:18:23;;;;;;;7.65;5.03;;;28.10;99.90;;;;;;4986283;28;20748;-60
2023/09/08 10:20:51;;;;;;;5.13;4.18;;;28.30;99.90;;;;;;4982868;28;20022;-59
2023/09/08 10:23:27;;;;;;;8.23;4.75;;;28.50;99.90;;;;;;4988927;28;20023;-61
2023/09/08 10:25:59;;;;;;;6.88;4.68;;;28.80;99.90;;;;;;4983515;28;20027;-58
2023/09/08 10:28:25;;;;;;;9.50;4.93;;;28.90;99.90;;;;;;4989041;28;20038;-60
2023/09/08 10:30:51;;;;;;;8.18;5.10;;;28.90;99.90;;;;;;4987005;28;20069;-61
2023/09/08 10:33:18;;;;;;;10.65;4.90;;;29.10;99.90;;;;;;4994844;28;20518;-60
2023/09/08 10:35:45;;;;;;;9.60;5.28;;;29.20;99.90;;;;;;4986078;28;20050;-62
2023/09/08 10:38:26;;;;;;;8.77;5.00;;;29.20;99.90;;;;;;4991432;28;20026;-60
2023/09/08 10:40:53;;;;;;;11.98;4.78;;;29.20;99.90;;;;;;4983302;28;20041;-61
2023/09/08 10:43:19;;;;;;;5.80;4.70;;;29.40;99.90;;;;;;4981380;28;20493;-61
2023/09/08 10:45:46;;;;;;;10.70;4.95;;;29.60;99.90;;;;;;4980535;28;20553;-61
2023/09/08 10:48:14;;;;;;;14.18;4.50;;;29.60;99.90;;;;;;4982153;28;20042;-57
2023/09/08 10:50:43;;;;;;;11.35;5.30;;;29.80;99.90;;;;;;4985330;28;20529;-60
2023/09/08 10:53:18;;;;;;;10.77;4.68;;;29.90;99.90;;;;;;4983658;28;20026;-61
2023/09/08 10:55:48;;;;;;;9.98;5.05;;;29.90;99.90;;;;;;4982738;28;20029;-59
2023/09/08 10:58:29;;;;;;;11.88;4.72;;;30.00;99.90;;;;;;4985042;28;20018;-58
2023/09/08 11:01:01;;;;;;;8.27;5.00;;;30.20;99.90;;;;;;4987738;28;20015;-61
2023/09/08 11:03:42;;;;;;;8.32;5.13;;;30.30;99.90;;;;;;4985730;28;20033;-59
2023/09/08 11:06:09;;;;;;;6.93;4.40;;;30.50;99.90;;;;;;4988720;28;20026;-62
2023/09/08 11:08:43;;;;;;;8.70;4.60;;;30.40;99.90;;;;;;4989048;28;20022;-59
2023/09/08 11:11:14;;;;;;;9.85;4.60;;;30.40;99.90;;;;;;4986727;28;20027;-59
2023/09/08 11:13:39;;;;;;;8.80;4.80;;;30.60;99.90;;;;;;4985419;28;20512;-62
2023/09/08 11:16:06;;;;;;;8.88;4.60;;;30.60;99.90;;;;;;4982632;28;20050;-60
2023/09/08 11:18:36;;;;;;;14.07;4.55;;;30.50;99.80;;;;;;4981362;28;20031;-61
2023/09/08 11:21:03;;;;;;;8.38;4.07;;;30.60;99.10;;;;;;4984782;28;20073;-62
2023/09/08 11:23:29;;;;;;;11.52;4.07;;;30.60;99.60;;;;;;4983542;28;20513;-61
2023/09/08 11:25:54;;;;;;;14.73;5.22;;;30.70;99.70;;;;;;4988373;28;20026;-58
2023/09/08 11:28:24;;;;;;;7.93;5.40;;;30.90;99.80;;;;;;4983422;28;20037;-61
2023/09/08 11:30:50;;;;;;;9.15;4.45;;;31.10;98.70;;;;;;4985300;28;20404;-59
2023/09/08 11:33:17;;;;;;;9.00;4.38;;;31.10;99.90;;;;;;4980963;28;20034;-62
2023/09/08 11:35:44;;;;;;;5.32;3.92;;;31.30;98.00;;;;;;4988382;28;20401;-61
2023/09/08 11:38:11;;;;;;;5.43;4.53;;;31.40;98.20;;;;;;5000630;28;20026;-62
2023/09/08 11:40:37;;;;;;;9.30;4.30;;;31.80;99.90;;;;;;4982273;28;20026;-60
2023/09/08 11:43:03;;;;;;;9.30;4.32;;;31.90;98.70;;;;;;4986374;28;20022;-61
2023/09/08 11:45:30;;;;;;;6.60;4.68;;;31.90;99.30;;;;;;4987386;28;20026;-62
2023/09/08 11:47:57;;;;;;;8.38;4.50;;;31.90;98.90;;;;;;4986317;28;20094;-60
2023/09/08 11:50:23;;;;;;;10.63;4.28;;;31.90;98.60;;;;;;4989050;28;20119;-59
2023/09/08 11:52:53;;;;;;;5.22;4.32;;;32.20;98.40;;;;;;4988572;28;20034;-61
2023/09/08 11:55:21;;;;;;;6.00;4.20;;;32.20;97.30;;;;;;4986145;28;20042;-60
2023/09/08 11:58:02;;;;;;;5.32;4.30;;;32.20;96.30;;;;;;4985947;28;20034;-59
2023/09/08 12:00:29;;;;;;;11.90;4.55;;;32.60;94.30;;;;;;4986241;28;20531;-59
2023/09/08 12:02:55;;;;;;;5.13;3.70;;;32.40;98.00;;;;;;4983910;28;20034;-60
2023/09/08 12:05:28;;;;;;;7.10;4.45;;;32.50;98.40;;;;;;4983487;28;20035;-57
2023/09/08 12:07:58;;;;;;;10.65;5.05;;;32.40;95.20;;;;;;4987443;28;20033;-53
2023/09/08 12:10:25;;;;;;;5.43;3.90;;;32.40;95.70;;;;;;4983067;28;20042;-62
2023/09/08 12:12:58;;;;;;;9.25;4.85;;;32.30;96.60;;;;;;4980248;28;20574;-58
2023/09/08 12:15:39;;;;;;;9.98;4.35;;;32.60;94.20;;;;;;4984453;28;20039;-60
2023/09/08 12:18:07;;;;;;;17.27;4.50;;;32.60;94.50;;;;;;4983577;28;20025;-59
2023/09/08 12:20:34;;;;;;;8.25;4.07;;;32.80;95.50;;;;;;4987228;28;20530;-61
2023/09/08 12:23:05;;;;;;;6.60;3.95;;;33.20;93.80;;;;;;4979998;28;20497;-62
2023/09/08 12:25:31;;;;;;;10.25;4.13;;;33.40;91.50;;;;;;4982324;28;20030;-56
2023/09/08 12:27:57;;;;;;;6.28;4.38;;;33.00;95.40;;;;;;4976803;28;20038;-60
2023/09/08 12:30:32;;;;;;;23.17;6.10;;;33.30;94.20;;;;;;4983814;28;20049;-60
2023/09/08 12:32:58;;;;;;;6.80;4.20;;;33.10;95.00;;;;;;4976742;28;20545;-62
2023/09/08 12:35:25;;;;;;;8.35;3.95;;;33.40;95.20;;;;;;4978492;28;20034;-62